sensor_id;sensor_type;location;lat;lon;timestamp;pressure;altitude;pressure_sealevel;temperature;humidity
10310;BME280;5200;43.236;27.986;2023-04-10T00:00:34;100243.41;;;5.91;84.56
10310;BME280;5200;43.236;27.986;2023-04-10T00:03:02;100234.84;;;5.89;84.45
10310;BME280;5200;43.236;27.986;2023-04-10T00:05:29;100245.06;;;5.92;84.88
10310;BME280;5200;43.236;27.986;2023-04-10T00:07:57;100210.59;;;5.75;84.42
10310;BME280;5200;43.236;27.986;2023-04-10T00:10:24;100254.03;;;6.03;84.51
10310;BME280;5200;43.236;27.986;2023-04-10T00:12:54;100253.06;;;6.04;84.06
10310;BME280;5200;43.236;27.986;2023-04-10T00:15:21;100241.19;;;6.00;84.04
10310;BME280;5200;43.236;27.986;2023-04-10T00:17:48;100216.56;;;5.89;83.76
10310;BME280;5200;43.236;27.986;2023-04-10T00:20:19;100220.28;;;6.00;83.00
10310;BME280;5200;43.236;27.986;2023-04-10T00:22:46;100208.88;;;6.01;82.35
10310;BME280;5200;43.236;27.986;2023-04-10T00:25:14;100224.84;;;6.09;82.76
10310;BME280;5200;43.236;27.986;2023-04-10T00:27:41;100232.50;;;6.12;82.02
10310;BME280;5200;43.236;27.986;2023-04-10T00:30:08;100237.41;;;6.17;82.30
10310;BME280;5200;43.236;27.986;2023-04-10T00:32:35;100233.94;;;6.16;81.87
10310;BME280;5200;43.236;27.986;2023-04-10T00:35:02;100195.31;;;5.96;82.24
10310;BME280;5200;43.236;27.986;2023-04-10T00:37:29;100233.84;;;6.18;81.43
10310;BME280;5200;43.236;27.986;2023-04-10T00:39:55;100192.47;;;5.99;81.40
10310;BME280;5200;43.236;27.986;2023-04-10T00:42:24;100196.03;;;5.98;81.43
10310;BME280;5200;43.236;27.986;2023-04-10T00:44:50;100183.16;;;5.95;81.70
10310;BME280;5200;43.236;27.986;2023-04-10T00:47:17;100206.88;;;6.04;81.68
10310;BME280;5200;43.236;27.986;2023-04-10T00:49:44;100184.72;;;5.97;81.81
10310;BME280;5200;43.236;27.986;2023-04-10T00:52:11;100179.78;;;5.92;81.58
10310;BME280;5200;43.236;27.986;2023-04-10T00:54:38;100174.69;;;5.91;81.34
10310;BME280;5200;43.236;27.986;2023-04-10T00:57:06;100199.59;;;6.09;81.13
10310;BME280;5200;43.236;27.986;2023-04-10T00:59:34;100196.84;;;6.11;80.90
10310;BME280;5200;43.236;27.986;2023-04-10T01:02:01;100168.66;;;6.03;80.46
10310;BME280;5200;43.236;27.986;2023-04-10T01:04:29;100194.13;;;6.25;79.72
10310;BME280;5200;43.236;27.986;2023-04-10T01:06:58;100194.88;;;6.27;79.39
10310;BME280;5200;43.236;27.986;2023-04-10T01:09:39;100166.38;;;6.11;79.24
10310;BME280;5200;43.236;27.986;2023-04-10T01:12:17;100195.59;;;6.29;79.08
10310;BME280;5200;43.236;27.986;2023-04-10T01:14:54;100195.59;;;6.29;79.15
10310;BME280;5200;43.236;27.986;2023-04-10T01:17:29;100197.38;;;6.29;79.20
10310;BME280;5200;43.236;27.986;2023-04-10T01:20:01;100191.84;;;6.33;78.73
10310;BME280;5200;43.236;27.986;2023-04-10T01:22:34;100194.47;;;6.33;79.01
10310;BME280;5200;43.236;27.986;2023-04-10T01:25:16;100191.09;;;6.31;78.75
10310;BME280;5200;43.236;27.986;2023-04-10T01:27:53;100196.34;;;6.31;78.07
10310;BME280;5200;43.236;27.986;2023-04-10T01:30:29;100194.47;;;6.33;78.42
10310;BME280;5200;43.236;27.986;2023-04-10T01:32:58;100165.84;;;6.19;77.82
10310;BME280;5200;43.236;27.986;2023-04-10T01:35:27;100191.41;;;6.40;77.40
10310;BME280;5200;43.236;27.986;2023-04-10T01:37:56;100185.97;;;6.43;77.06
10310;BME280;5200;43.236;27.986;2023-04-10T01:40:28;100194.25;;;6.49;76.99
10310;BME280;5200;43.236;27.986;2023-04-10T01:42:55;100159.03;;;6.29;76.65
10310;BME280;5200;43.236;27.986;2023-04-10T01:45:25;100173.66;;;6.45;75.73
10310;BME280;5200;43.236;27.986;2023-04-10T01:47:54;100185.44;;;6.63;76.02
10310;BME280;5200;43.236;27.986;2023-04-10T01:50:21;100185.94;;;6.68;75.86
10310;BME280;5200;43.236;27.986;2023-04-10T01:52:50;100193.66;;;6.70;75.70
10310;BME280;5200;43.236;27.986;2023-04-10T01:55:18;100166.41;;;6.61;75.52
10310;BME280;5200;43.236;27.986;2023-04-10T01:57:46;100188.59;;;6.80;75.49
10310;BME280;5200;43.236;27.986;2023-04-10T02:00:14;100154.38;;;6.59;75.48
10310;BME280;5200;43.236;27.986;2023-04-10T02:02:41;100151.63;;;6.60;75.44
10310;BME280;5200;43.236;27.986;2023-04-10T02:05:09;100180.75;;;6.80;75.68
10310;BME280;5200;43.236;27.986;2023-04-10T02:07:41;100179.94;;;6.79;77.15
10310;BME280;5200;43.236;27.986;2023-04-10T02:10:12;100179.09;;;6.78;76.78
10310;BME280;5200;43.236;27.986;2023-04-10T02:12:45;100186.13;;;6.78;77.08
10310;BME280;5200;43.236;27.986;2023-04-10T02:15:18;100169.94;;;6.73;77.87
10310;BME280;5200;43.236;27.986;2023-04-10T02:17:45;100179.00;;;6.80;78.64
10310;BME280;5200;43.236;27.986;2023-04-10T02:20:15;100175.44;;;6.81;79.91
10310;BME280;5200;43.236;27.986;2023-04-10T02:22:43;100167.50;;;6.83;80.22
10310;BME280;5200;43.236;27.986;2023-04-10T02:25:10;100143.66;;;6.74;80.74
10310;BME280;5200;43.236;27.986;2023-04-10T02:27:39;100140.84;;;6.77;82.26
10310;BME280;5200;43.236;27.986;2023-04-10T02:30:07;100164.28;;;7.03;81.90
10310;BME280;5200;43.236;27.986;2023-04-10T02:32:34;100162.75;;;7.12;81.91
10310;BME280;5200;43.236;27.986;2023-04-10T02:35:01;100162.44;;;7.16;83.12
10310;BME280;5200;43.236;27.986;2023-04-10T02:37:29;100161.50;;;7.17;82.40
10310;BME280;5200;43.236;27.986;2023-04-10T02:39:57;100133.09;;;7.00;82.59
10310;BME280;5200;43.236;27.986;2023-04-10T02:42:24;100138.00;;;7.05;82.90
10310;BME280;5200;43.236;27.986;2023-04-10T02:44:51;100156.25;;;7.17;82.64
10310;BME280;5200;43.236;27.986;2023-04-10T02:47:18;100127.25;;;6.96;84.00
10310;BME280;5200;43.236;27.986;2023-04-10T02:49:45;100161.50;;;7.17;84.44
10310;BME280;5200;43.236;27.986;2023-04-10T02:52:12;100151.22;;;7.14;85.26
10310;BME280;5200;43.236;27.986;2023-04-10T02:54:40;100163.16;;;7.18;85.00
10310;BME280;5200;43.236;27.986;2023-04-10T02:57:07;100148.63;;;7.14;85.38
10310;BME280;5200;43.236;27.986;2023-04-10T02:59:34;100160.44;;;7.20;86.68
10310;BME280;5200;43.236;27.986;2023-04-10T03:02:01;100149.34;;;7.16;86.37
10310;BME280;5200;43.236;27.986;2023-04-10T03:04:30;100157.69;;;7.22;87.23
10310;BME280;5200;43.236;27.986;2023-04-10T03:06:57;100162.00;;;7.23;87.44
10310;BME280;5200;43.236;27.986;2023-04-10T03:09:24;100156.28;;;7.29;87.95
10310;BME280;5200;43.236;27.986;2023-04-10T03:11:52;100152.59;;;7.31;87.58
10310;BME280;5200;43.236;27.986;2023-04-10T03:14:19;100144.25;;;7.26;87.50
10310;BME280;5200;43.236;27.986;2023-04-10T03:16:46;100155.78;;;7.24;87.97
10310;BME280;5200;43.236;27.986;2023-04-10T03:19:14;100144.72;;;7.20;88.04
10310;BME280;5200;43.236;27.986;2023-04-10T03:21:41;100114.44;;;7.05;88.03
10310;BME280;5200;43.236;27.986;2023-04-10T03:24:08;100153.41;;;7.20;88.32
10310;BME280;5200;43.236;27.986;2023-04-10T03:26:35;100114.69;;;7.02;88.02
10310;BME280;5200;43.236;27.986;2023-04-10T03:29:03;100151.22;;;7.14;89.14
10310;BME280;5200;43.236;27.986;2023-04-10T03:31:30;100116.16;;;6.93;89.17
10310;BME280;5200;43.236;27.986;2023-04-10T03:33:56;100109.50;;;6.89;89.57
10310;BME280;5200;43.236;27.986;2023-04-10T03:36:23;100118.06;;;6.91;89.90
10310;BME280;5200;43.236;27.986;2023-04-10T03:38:51;100143.63;;;7.11;90.43
10310;BME280;5200;43.236;27.986;2023-04-10T03:41:18;100153.97;;;7.13;90.08
10310;BME280;5200;43.236;27.986;2023-04-10T03:43:45;100103.19;;;6.91;90.69
10310;BME280;5200;43.236;27.986;2023-04-10T03:46:14;100138.63;;;7.08;89.91
10310;BME280;5200;43.236;27.986;2023-04-10T03:48:40;100128.59;;;7.02;90.91
10310;BME280;5200;43.236;27.986;2023-04-10T03:51:07;100107.00;;;6.87;90.98
10310;BME280;5200;43.236;27.986;2023-04-10T03:53:34;100140.50;;;7.06;92.14
10310;BME280;5200;43.236;27.986;2023-04-10T03:56:01;100117.88;;;7.05;90.90
10310;BME280;5200;43.236;27.986;2023-04-10T03:58:27;100142.88;;;7.09;91.69
10310;BME280;5200;43.236;27.986;2023-04-10T04:00:54;100097.75;;;6.94;91.67
10310;BME280;5200;43.236;27.986;2023-04-10T04:03:23;100139.59;;;7.18;91.82
10310;BME280;5200;43.236;27.986;2023-04-10T04:05:50;100100.25;;;6.96;91.27
10310;BME280;5200;43.236;27.986;2023-04-10T04:08:17;100112.56;;;7.07;91.17
10310;BME280;5200;43.236;27.986;2023-04-10T04:10:44;100134.84;;;7.24;91.07
10310;BME280;5200;43.236;27.986;2023-04-10T04:13:11;100112.72;;;7.16;90.58
10310;BME280;5200;43.236;27.986;2023-04-10T04:15:38;100128.25;;;7.42;91.13
10310;BME280;5200;43.236;27.986;2023-04-10T04:18:05;100121.09;;;7.33;90.05
10310;BME280;5200;43.236;27.986;2023-04-10T04:20:33;100135.91;;;7.56;89.97
10310;BME280;5200;43.236;27.986;2023-04-10T04:23:00;100144.25;;;7.61;89.25
10310;BME280;5200;43.236;27.986;2023-04-10T04:25:26;100159.53;;;7.68;89.08
10310;BME280;5200;43.236;27.986;2023-04-10T04:27:53;100138.13;;;7.74;88.75
10310;BME280;5200;43.236;27.986;2023-04-10T04:30:20;100147.53;;;7.76;87.46
10310;BME280;5200;43.236;27.986;2023-04-10T04:32:47;100137.88;;;7.77;88.22
10310;BME280;5200;43.236;27.986;2023-04-10T04:35:14;100142.03;;;7.79;88.01
10310;BME280;5200;43.236;27.986;2023-04-10T04:37:42;100113.22;;;7.68;86.59
10310;BME280;5200;43.236;27.986;2023-04-10T04:40:10;100146.22;;;7.82;86.49
10310;BME280;5200;43.236;27.986;2023-04-10T04:42:37;100123.09;;;7.65;87.54
10310;BME280;5200;43.236;27.986;2023-04-10T04:45:04;100148.72;;;7.83;86.59
10310;BME280;5200;43.236;27.986;2023-04-10T04:47:31;100153.72;;;7.87;85.65
10310;BME280;5200;43.236;27.986;2023-04-10T04:49:58;100144.06;;;7.87;86.67
10310;BME280;5200;43.236;27.986;2023-04-10T04:52:25;100110.97;;;7.75;86.02
10310;BME280;5200;43.236;27.986;2023-04-10T04:54:53;100140.75;;;7.96;85.38
10310;BME280;5200;43.236;27.986;2023-04-10T04:57:20;100145.06;;;7.97;84.75
10310;BME280;5200;43.236;27.986;2023-04-10T04:59:47;100106.19;;;7.80;84.37
10310;BME280;5200;43.236;27.986;2023-04-10T05:02:14;100120.16;;;7.92;85.07
10310;BME280;5200;43.236;27.986;2023-04-10T05:04:41;100149.22;;;8.11;84.44
10310;BME280;5200;43.236;27.986;2023-04-10T05:07:07;100147.31;;;8.13;84.12
10310;BME280;5200;43.236;27.986;2023-04-10T05:09:34;100115.38;;;7.97;84.43
10310;BME280;5200;43.236;27.986;2023-04-10T05:12:03;100158.31;;;8.18;83.49
10310;BME280;5200;43.236;27.986;2023-04-10T05:14:30;100153.75;;;8.20;83.46
10310;BME280;5200;43.236;27.986;2023-04-10T05:16:57;100122.69;;;8.04;83.38
10310;BME280;5200;43.236;27.986;2023-04-10T05:19:23;100150.41;;;8.30;83.00
10310;BME280;5200;43.236;27.986;2023-04-10T05:21:50;100152.47;;;8.37;82.91
10310;BME280;5200;43.236;27.986;2023-04-10T05:24:17;100142.59;;;8.41;81.73
10310;BME280;5200;43.236;27.986;2023-04-10T05:26:44;100158.06;;;8.44;82.02
10310;BME280;5200;43.236;27.986;2023-04-10T05:29:12;100165.81;;;8.45;81.48
10310;BME280;5200;43.236;27.986;2023-04-10T05:31:39;100156.78;;;8.50;82.03
10310;BME280;5200;43.236;27.986;2023-04-10T05:34:06;100133.13;;;8.38;81.87
10310;BME280;5200;43.236;27.986;2023-04-10T05:36:34;100141.03;;;8.61;81.09
10310;BME280;5200;43.236;27.986;2023-04-10T05:39:01;100126.97;;;8.51;81.88
10310;BME280;5200;43.236;27.986;2023-04-10T05:41:27;100141.09;;;8.82;80.10
10310;BME280;5200;43.236;27.986;2023-04-10T05:43:54;100145.84;;;8.88;79.97
10310;BME280;5200;43.236;27.986;2023-04-10T05:46:23;100164.31;;;8.98;79.63
10310;BME280;5200;43.236;27.986;2023-04-10T05:48:49;100152.59;;;9.02;79.64
10310;BME280;5200;43.236;27.986;2023-04-10T05:51:16;100164.53;;;9.06;79.29
10310;BME280;5200;43.236;27.986;2023-04-10T05:53:43;100124.28;;;8.84;79.88
10310;BME280;5200;43.236;27.986;2023-04-10T05:56:10;100155.94;;;9.04;79.94
10310;BME280;5200;43.236;27.986;2023-04-10T05:58:37;100158.53;;;9.15;79.65
10310;BME280;5200;43.236;27.986;2023-04-10T06:01:04;100131.34;;;9.05;78.65
10310;BME280;5200;43.236;27.986;2023-04-10T06:03:33;100128.25;;;9.11;79.20
10310;BME280;5200;43.236;27.986;2023-04-10T06:06:00;100139.44;;;9.13;79.38
10310;BME280;5200;43.236;27.986;2023-04-10T06:08:27;100160.13;;;9.39;79.15
10310;BME280;5200;43.236;27.986;2023-04-10T06:10:55;100151.59;;;9.46;78.76
10310;BME280;5200;43.236;27.986;2023-04-10T06:13:21;100164.34;;;9.51;78.05
10310;BME280;5200;43.236;27.986;2023-04-10T06:15:48;100131.63;;;9.34;78.10
10310;BME280;5200;43.236;27.986;2023-04-10T06:18:15;100160.63;;;9.53;77.34
10310;BME280;5200;43.236;27.986;2023-04-10T06:20:43;100165.06;;;9.53;78.33
10310;BME280;5200;43.236;27.986;2023-04-10T06:23:11;100141.47;;;9.42;76.63
10310;BME280;5200;43.236;27.986;2023-04-10T06:25:38;100134.31;;;9.44;77.30
10310;BME280;5200;43.236;27.986;2023-04-10T06:28:05;100175.75;;;9.61;76.30
10310;BME280;5200;43.236;27.986;2023-04-10T06:30:32;100164.31;;;9.62;76.09
10310;BME280;5200;43.236;27.986;2023-04-10T06:33:01;100168.84;;;9.60;77.00
10310;BME280;5200;43.236;27.986;2023-04-10T06:35:28;100147.16;;;9.47;77.15
10310;BME280;5200;43.236;27.986;2023-04-10T06:37:57;100156.91;;;9.56;75.52
10310;BME280;5200;43.236;27.986;2023-04-10T06:40:23;100188.13;;;9.70;75.79
10310;BME280;5200;43.236;27.986;2023-04-10T06:42:50;100159.09;;;9.51;76.31
10310;BME280;5200;43.236;27.986;2023-04-10T06:45:17;100158.34;;;9.60;75.86
10310;BME280;5200;43.236;27.986;2023-04-10T06:47:44;100150.63;;;9.68;76.45
10310;BME280;5200;43.236;27.986;2023-04-10T06:50:11;100168.56;;;10.05;74.66
10310;BME280;5200;43.236;27.986;2023-04-10T06:52:38;100148.13;;;10.09;74.00
10310;BME280;5200;43.236;27.986;2023-04-10T06:55:06;100163.47;;;10.34;71.43
10310;BME280;5200;43.236;27.986;2023-04-10T06:57:33;100180.72;;;10.58;69.75
10310;BME280;5200;43.236;27.986;2023-04-10T07:00:00;100187.28;;;10.64;69.00
10310;BME280;5200;43.236;27.986;2023-04-10T07:02:27;100180.63;;;10.69;68.84
10310;BME280;5200;43.236;27.986;2023-04-10T07:04:54;100182.44;;;10.78;68.17
10310;BME280;5200;43.236;27.986;2023-04-10T07:07:21;100179.09;;;10.67;68.66
10310;BME280;5200;43.236;27.986;2023-04-10T07:09:48;100190.75;;;10.74;68.56
10310;BME280;5200;43.236;27.986;2023-04-10T07:12:16;100186.03;;;10.68;68.53
10310;BME280;5200;43.236;27.986;2023-04-10T07:14:43;100169.78;;;10.63;69.31
10310;BME280;5200;43.236;27.986;2023-04-10T07:17:09;100174.69;;;10.77;68.81
10310;BME280;5200;43.236;27.986;2023-04-10T07:19:36;100178.59;;;10.92;69.19
10310;BME280;5200;43.236;27.986;2023-04-10T07:22:03;100181.84;;;11.06;69.09
10310;BME280;5200;43.236;27.986;2023-04-10T07:24:30;100191.97;;;11.20;70.32
10310;BME280;5200;43.236;27.986;2023-04-10T07:26:57;100178.91;;;11.38;68.77
10310;BME280;5200;43.236;27.986;2023-04-10T07:29:26;100183.09;;;11.60;69.36
10310;BME280;5200;43.236;27.986;2023-04-10T07:31:53;100178.78;;;11.78;67.11
10310;BME280;5200;43.236;27.986;2023-04-10T07:34:20;100179.88;;;11.85;66.30
10310;BME280;5200;43.236;27.986;2023-04-10T07:36:46;100174.19;;;12.00;66.83
10310;BME280;5200;43.236;27.986;2023-04-10T07:39:13;100181.44;;;12.35;64.60
10310;BME280;5200;43.236;27.986;2023-04-10T07:41:40;100187.09;;;12.40;64.21
10310;BME280;5200;43.236;27.986;2023-04-10T07:44:07;100171.59;;;12.55;63.31
10310;BME280;5200;43.236;27.986;2023-04-10T07:46:35;100153.28;;;12.26;62.44
10310;BME280;5200;43.236;27.986;2023-04-10T07:49:02;100156.75;;;12.26;64.06
10310;BME280;5200;43.236;27.986;2023-04-10T07:51:29;100154.00;;;12.46;64.61
10310;BME280;5200;43.236;27.986;2023-04-10T07:53:56;100166.53;;;12.72;62.91
10310;BME280;5200;43.236;27.986;2023-04-10T07:56:22;100177.03;;;12.81;60.83
10310;BME280;5200;43.236;27.986;2023-04-10T07:58:50;100136.03;;;12.32;62.24
10310;BME280;5200;43.236;27.986;2023-04-10T08:01:17;100170.72;;;12.37;63.56
10310;BME280;5200;43.236;27.986;2023-04-10T08:03:45;100149.50;;;12.29;63.74
10310;BME280;5200;43.236;27.986;2023-04-10T08:06:12;100142.59;;;12.27;63.43
10310;BME280;5200;43.236;27.986;2023-04-10T08:08:40;100158.81;;;12.33;63.72
10310;BME280;5200;43.236;27.986;2023-04-10T08:11:21;100146.88;;;12.29;65.14
10310;BME280;5200;43.236;27.986;2023-04-10T08:13:49;100160.94;;;12.19;65.23
10310;BME280;5200;43.236;27.986;2023-04-10T08:16:17;100166.81;;;12.03;67.49
10310;BME280;5200;43.236;27.986;2023-04-10T08:18:45;100150.94;;;12.13;67.24
10310;BME280;5200;43.236;27.986;2023-04-10T08:21:12;100162.41;;;12.32;67.47
10310;BME280;5200;43.236;27.986;2023-04-10T08:23:39;100127.97;;;12.33;66.22
10310;BME280;5200;43.236;27.986;2023-04-10T08:26:06;100155.69;;;12.47;66.18
10310;BME280;5200;43.236;27.986;2023-04-10T08:28:33;100114.16;;;12.21;67.39
10310;BME280;5200;43.236;27.986;2023-04-10T08:31:00;100125.34;;;12.33;67.60
10310;BME280;5200;43.236;27.986;2023-04-10T08:33:27;100139.81;;;12.57;66.48
10310;BME280;5200;43.236;27.986;2023-04-10T08:35:55;100143.44;;;12.46;67.87
10310;BME280;5200;43.236;27.986;2023-04-10T08:38:22;100144.31;;;12.46;67.47
10310;BME280;5200;43.236;27.986;2023-04-10T08:40:49;100131.56;;;12.42;68.79
10310;BME280;5200;43.236;27.986;2023-04-10T08:43:16;100133.19;;;12.43;69.56
10310;BME280;5200;43.236;27.986;2023-04-10T08:45:43;100108.94;;;12.02;72.56
10310;BME280;5200;43.236;27.986;2023-04-10T08:48:10;100086.94;;;12.21;70.53
10310;BME280;5200;43.236;27.986;2023-04-10T08:50:41;100128.13;;;12.59;70.35
10310;BME280;5200;43.236;27.986;2023-04-10T08:53:12;100105.09;;;12.24;72.39
10310;BME280;5200;43.236;27.986;2023-04-10T08:55:39;100116.66;;;12.13;72.93
10310;BME280;5200;43.236;27.986;2023-04-10T08:58:07;100086.09;;;12.20;73.09
10310;BME280;5200;43.236;27.986;2023-04-10T09:00:35;100103.09;;;12.36;74.20
10310;BME280;5200;43.236;27.986;2023-04-10T09:03:03;100117.41;;;12.33;74.78
10310;BME280;5200;43.236;27.986;2023-04-10T09:05:34;100110.25;;;12.16;75.44
10310;BME280;5200;43.236;27.986;2023-04-10T09:08:01;100086.09;;;12.20;76.22
10310;BME280;5200;43.236;27.986;2023-04-10T09:10:29;100098.41;;;12.30;75.98
10310;BME280;5200;43.236;27.986;2023-04-10T09:12:56;100101.03;;;12.30;76.21
10310;BME280;5200;43.236;27.986;2023-04-10T09:15:23;100097.56;;;12.29;76.25
10310;BME280;5200;43.236;27.986;2023-04-10T09:17:54;100069.63;;;12.09;76.99
10310;BME280;5200;43.236;27.986;2023-04-10T09:20:23;100099.97;;;12.22;77.28
10310;BME280;5200;43.236;27.986;2023-04-10T09:22:51;100087.41;;;12.34;76.72
10310;BME280;5200;43.236;27.986;2023-04-10T09:25:31;100074.38;;;12.33;76.33
10310;BME280;5200;43.236;27.986;2023-04-10T09:27:59;100086.09;;;12.20;77.31
10310;BME280;5200;43.236;27.986;2023-04-10T09:30:32;100092.16;;;12.31;76.50
10310;BME280;5200;43.236;27.986;2023-04-10T09:33:00;100076.41;;;12.39;75.92
10310;BME280;5200;43.236;27.986;2023-04-10T09:35:35;100069.28;;;12.49;76.40
10310;BME280;5200;43.236;27.986;2023-04-10T09:38:13;100084.13;;;12.50;75.40
10310;BME280;5200;43.236;27.986;2023-04-10T09:40:42;100068.69;;;12.55;74.98
10310;BME280;5200;43.236;27.986;2023-04-10T09:43:20;100065.53;;;12.52;75.57
10310;BME280;5200;43.236;27.986;2023-04-10T09:45:48;100079.34;;;12.63;74.67
10310;BME280;5200;43.236;27.986;2023-04-10T09:48:15;100049.06;;;12.40;74.56
10310;BME280;5200;43.236;27.986;2023-04-10T09:50:42;100049.66;;;12.34;76.00
10310;BME280;5200;43.236;27.986;2023-04-10T09:53:11;100078.28;;;12.74;75.00
10310;BME280;5200;43.236;27.986;2023-04-10T09:55:41;100049.75;;;12.60;73.58
10310;BME280;5200;43.236;27.986;2023-04-10T09:58:09;100070.00;;;12.87;72.94
10310;BME280;5200;43.236;27.986;2023-04-10T10:00:39;100072.41;;;12.98;73.16
10310;BME280;5200;43.236;27.986;2023-04-10T10:03:08;100070.66;;;13.25;71.94
10310;BME280;5200;43.236;27.986;2023-04-10T10:05:37;100056.19;;;13.29;71.64
10310;BME280;5200;43.236;27.986;2023-04-10T10:08:05;100059.66;;;13.29;71.58
10310;BME280;5200;43.236;27.986;2023-04-10T10:10:32;100061.59;;;13.09;71.92
10310;BME280;5200;43.236;27.986;2023-04-10T10:13:01;100059.34;;;13.15;73.63
10310;BME280;5200;43.236;27.986;2023-04-10T10:15:34;100052.94;;;13.17;74.25
10310;BME280;5200;43.236;27.986;2023-04-10T10:18:07;100045.97;;;13.16;73.70
10310;BME280;5200;43.236;27.986;2023-04-10T10:20:42;100054.31;;;13.03;75.20
10310;BME280;5200;43.236;27.986;2023-04-10T10:23:09;100049.63;;;12.97;76.52
10310;BME280;5200;43.236;27.986;2023-04-10T10:25:37;100044.47;;;13.14;74.75
10310;BME280;5200;43.236;27.986;2023-04-10T10:28:06;100041.47;;;12.90;75.17
10310;BME280;5200;43.236;27.986;2023-04-10T10:30:33;100013.72;;;12.68;73.67
10310;BME280;5200;43.236;27.986;2023-04-10T10:33:05;100027.81;;;12.59;76.86
10310;BME280;5200;43.236;27.986;2023-04-10T10:35:33;100042.16;;;12.75;75.58
10310;BME280;5200;43.236;27.986;2023-04-10T10:38:02;100039.13;;;12.69;77.70
10310;BME280;5200;43.236;27.986;2023-04-10T10:40:31;100010.94;;;12.52;76.27
10310;BME280;5200;43.236;27.986;2023-04-10T10:43:09;100030.91;;;12.55;77.02
10310;BME280;5200;43.236;27.986;2023-04-10T10:45:41;100025.25;;;12.67;77.68
10310;BME280;5200;43.236;27.986;2023-04-10T10:48:13;99985.28;;;12.62;74.63
10310;BME280;5200;43.236;27.986;2023-04-10T10:50:53;99945.81;;;12.35;75.50
10310;BME280;5200;43.236;27.986;2023-04-10T10:53:35;100004.13;;;12.67;75.17
10310;BME280;5200;43.236;27.986;2023-04-10T10:56:34;99983.00;;;12.67;74.69
10310;BME280;5200;43.236;27.986;2023-04-10T10:59:02;99992.00;;;12.75;73.29
10310;BME280;5200;43.236;27.986;2023-04-10T11:01:29;99983.78;;;12.78;73.63
10310;BME280;5200;43.236;27.986;2023-04-10T11:03:56;99991.38;;;12.81;71.50
10310;BME280;5200;43.236;27.986;2023-04-10T11:06:49;99998.19;;;12.65;72.46
10310;BME280;5200;43.236;27.986;2023-04-10T11:09:46;99994.19;;;12.61;74.51
10310;BME280;5200;43.236;27.986;2023-04-10T11:12:14;99980.00;;;12.62;74.48
10310;BME280;5200;43.236;27.986;2023-04-10T11:14:42;99990.03;;;12.77;73.36
10310;BME280;5200;43.236;27.986;2023-04-10T11:17:11;99979.50;;;12.59;75.18
10310;BME280;5200;43.236;27.986;2023-04-10T11:19:56;99969.75;;;12.59;73.82
10310;BME280;5200;43.236;27.986;2023-04-10T11:22:25;99966.44;;;12.57;74.49
10310;BME280;5200;43.236;27.986;2023-04-10T11:24:59;99965.22;;;12.69;74.58
10310;BME280;5200;43.236;27.986;2023-04-10T11:27:43;99973.31;;;12.68;75.39
10310;BME280;5200;43.236;27.986;2023-04-10T11:30:34;99952.94;;;12.42;75.96
10310;BME280;5200;43.236;27.986;2023-04-10T11:33:02;99987.47;;;12.31;78.48
10310;BME280;5200;43.236;27.986;2023-04-10T11:35:30;99981.00;;;11.98;79.84
10310;BME280;5200;43.236;27.986;2023-04-10T11:38:16;99967.16;;;11.58;80.23
10310;BME280;5200;43.236;27.986;2023-04-10T11:40:55;99978.91;;;11.64;82.82
10310;BME280;5200;43.236;27.986;2023-04-10T11:43:22;99962.53;;;11.70;81.07
10310;BME280;5200;43.236;27.986;2023-04-10T11:45:58;99980.03;;;11.61;83.60
10310;BME280;5200;43.236;27.986;2023-04-10T11:48:26;99954.31;;;11.46;84.17
10310;BME280;5200;43.236;27.986;2023-04-10T11:57:36;99976.09;;;11.48;85.56
10310;BME280;5200;43.236;27.986;2023-04-10T12:00:04;99976.09;;;11.48;85.27
10310;BME280;5200;43.236;27.986;2023-04-10T12:02:33;99968.59;;;11.43;85.83
10310;BME280;5200;43.236;27.986;2023-04-10T12:04:59;99951.25;;;11.50;85.16
10310;BME280;5200;43.236;27.986;2023-04-10T12:07:26;99959.25;;;11.58;84.93
10310;BME280;5200;43.236;27.986;2023-04-10T12:09:55;99954.31;;;11.73;83.85
10310;BME280;5200;43.236;27.986;2023-04-10T12:12:33;99945.25;;;11.85;82.81
10310;BME280;5200;43.236;27.986;2023-04-10T12:15:02;99935.81;;;11.93;81.27
10310;BME280;5200;43.236;27.986;2023-04-10T12:17:29;99955.19;;;12.19;79.87
10310;BME280;5200;43.236;27.986;2023-04-10T12:19:58;99943.13;;;12.17;78.92
10310;BME280;5200;43.236;27.986;2023-04-10T12:22:25;99935.75;;;12.20;80.20
10310;BME280;5200;43.236;27.986;2023-04-10T12:24:52;99937.19;;;12.33;77.76
10310;BME280;5200;43.236;27.986;2023-04-10T12:27:20;99907.19;;;12.16;78.77
10310;BME280;5200;43.236;27.986;2023-04-10T12:29:47;99891.59;;;12.22;76.56
10310;BME280;5200;43.236;27.986;2023-04-10T12:32:15;99918.19;;;12.47;73.59
10310;BME280;5200;43.236;27.986;2023-04-10T12:34:48;99896.31;;;12.37;73.36
10310;BME280;5200;43.236;27.986;2023-04-10T12:37:17;99887.13;;;12.41;73.13
10310;BME280;5200;43.236;27.986;2023-04-10T12:39:44;99916.38;;;12.65;71.56
10310;BME280;5200;43.236;27.986;2023-04-10T12:42:12;99882.06;;;12.47;71.40
10310;BME280;5200;43.236;27.986;2023-04-10T12:44:49;99878.16;;;12.34;71.79
10310;BME280;5200;43.236;27.986;2023-04-10T12:47:16;99899.63;;;12.57;71.86
10310;BME280;5200;43.236;27.986;2023-04-10T12:50:05;99896.06;;;12.66;72.13
10310;BME280;5200;43.236;27.986;2023-04-10T12:52:33;99873.81;;;12.68;70.90
10310;BME280;5200;43.236;27.986;2023-04-10T12:55:11;99880.13;;;12.76;70.47
10310;BME280;5200;43.236;27.986;2023-04-10T12:57:39;99873.69;;;12.70;69.06
10310;BME280;5200;43.236;27.986;2023-04-10T13:00:07;99854.88;;;12.47;70.26
10310;BME280;5200;43.236;27.986;2023-04-10T13:02:35;99867.38;;;12.45;69.88
10310;BME280;5200;43.236;27.986;2023-04-10T13:05:02;99893.22;;;12.59;67.66
10310;BME280;5200;43.236;27.986;2023-04-10T13:07:29;99857.66;;;12.45;68.57
10310;BME280;5200;43.236;27.986;2023-04-10T13:09:58;99864.00;;;12.35;67.80
10310;BME280;5200;43.236;27.986;2023-04-10T13:12:25;99849.16;;;12.34;68.51